Time;durP1;ratioP1;P1;durP2;ratioP2;P2;SDS_P1;SDS_P2;PMS_P1;PMS_P2;Temp;Humidity;BMP_temperature;BMP_pressure;BME280_temperature;BME280_humidity;BME280_pressure;Samples;Min_cycle;Max_cycle;Signal;HPM_P1;HPM_P2
2022/03/11 00:00:48;;;;;;;14.95;8.35;;;;;;;;;;4936895;29;20052;-68
2022/03/11 00:03:19;;;;;;;14.70;8.88;;;;;;;;;;4937011;29;20051;-68
2022/03/11 00:05:47;;;;;;;15.80;9.00;;;;;;;;;;4937238;29;20486;-68
2022/03/11 00:15:50;;;;;;;16.40;8.68;;;;;;;;;;4937007;29;20038;-68
2022/03/11 00:18:19;;;;;;;14.25;9.13;;;;;;;;;;4936827;29;20052;-69
2022/03/11 00:20:50;;;;;;;12.68;8.65;;;;;;;;;;4936392;29;20059;-68
2022/03/11 00:23:21;;;;;;;12.95;8.75;;;;;;;;;;4936723;29;20048;-68
2022/03/11 00:25:53;;;;;;;16.65;8.57;;;;;;;;;;4936734;29;20058;-68
2022/03/11 00:28:23;;;;;;;14.52;8.80;;;;;;;;;;4936769;29;20064;-67
2022/03/11 00:31:00;;;;;;;15.85;9.43;;;;;;;;;;4936591;29;20056;-68
2022/03/11 00:33:41;;;;;;;14.63;9.02;;;;;;;;;;4936564;29;20495;-68
2022/03/11 00:36:09;;;;;;;15.82;8.85;;;;;;;;;;4936137;29;20066;-68
2022/03/11 00:38:40;;;;;;;14.35;8.85;;;;;;;;;;4936312;29;20434;-68
2022/03/11 00:41:09;;;;;;;18.42;10.10;;;;;;;;;;4936124;29;20094;-69
2022/03/11 00:43:38;;;;;;;15.55;9.63;;;;;;;;;;4936160;29;20062;-68
2022/03/11 00:46:09;;;;;;;14.82;9.73;;;;;;;;;;4935983;29;20066;-68
2022/03/11 00:48:39;;;;;;;16.20;9.55;;;;;;;;;;4935511;29;20052;-68
2022/03/11 00:51:07;;;;;;;16.00;9.20;;;;;;;;;;4935538;29;20047;-68
2022/03/11 00:53:38;;;;;;;12.82;8.50;;;;;;;;;;4936279;29;20059;-68
2022/03/11 00:56:06;;;;;;;18.10;10.07;;;;;;;;;;4936092;29;20056;-68
2022/03/11 00:58:35;;;;;;;16.70;9.40;;;;;;;;;;4936144;29;20058;-68
2022/03/11 01:01:03;;;;;;;14.15;9.93;;;;;;;;;;4935669;29;20062;-67
2022/03/11 01:03:41;;;;;;;16.00;9.88;;;;;;;;;;4936062;29;20142;-69
2022/03/11 01:06:09;;;;;;;15.60;9.98;;;;;;;;;;4935892;29;20051;-68
2022/03/11 01:08:37;;;;;;;14.98;10.00;;;;;;;;;;4936039;29;20352;-68
2022/03/11 01:11:11;;;;;;;15.00;9.57;;;;;;;;;;4935591;29;20080;-69
2022/03/11 01:13:39;;;;;;;18.10;10.88;;;;;;;;;;4935908;29;20052;-68
2022/03/11 01:16:08;;;;;;;17.35;10.38;;;;;;;;;;4935659;29;20062;-68
2022/03/11 01:18:37;;;;;;;19.80;11.48;;;;;;;;;;4935844;29;20118;-68
2022/03/11 01:21:05;;;;;;;16.77;10.50;;;;;;;;;;4935486;29;20063;-68
2022/03/11 01:23:34;;;;;;;17.65;10.65;;;;;;;;;;4936125;29;20047;-69
2022/03/11 01:26:02;;;;;;;20.25;10.10;;;;;;;;;;4935323;29;20047;-68
2022/03/11 01:28:31;;;;;;;16.90;10.82;;;;;;;;;;4935709;29;20055;-68
2022/03/11 01:31:01;;;;;;;18.15;10.60;;;;;;;;;;4935225;29;20055;-69
2022/03/11 01:33:33;;;;;;;19.35;11.43;;;;;;;;;;4934527;29;20571;-67
2022/03/11 01:36:01;;;;;;;19.77;12.07;;;;;;;;;;4935310;29;20482;-69
2022/03/11 01:38:29;;;;;;;17.85;11.63;;;;;;;;;;4935332;29;20051;-69
2022/03/11 01:40:57;;;;;;;18.65;11.90;;;;;;;;;;4935149;29;20051;-68
2022/03/11 01:43:27;;;;;;;19.83;11.98;;;;;;;;;;4935322;29;20044;-69
2022/03/11 01:45:57;;;;;;;19.92;12.68;;;;;;;;;;4935144;29;20056;-69
2022/03/11 01:48:29;;;;;;;17.70;12.10;;;;;;;;;;4935745;29;20505;-68
2022/03/11 01:50:57;;;;;;;19.88;12.70;;;;;;;;;;4934902;29;20048;-68
2022/03/11 01:53:26;;;;;;;24.00;13.18;;;;;;;;;;4934863;29;20052;-69
2022/03/11 01:55:53;;;;;;;19.35;12.65;;;;;;;;;;4933731;29;20056;-69
2022/03/11 01:58:25;;;;;;;20.58;12.82;;;;;;;;;;4935303;29;20056;-68
2022/03/11 02:00:55;;;;;;;19.60;13.10;;;;;;;;;;4917789;29;20061;-68
2022/03/11 02:03:25;;;;;;;20.70;12.98;;;;;;;;;;4934868;29;20490;-68
2022/03/11 02:05:52;;;;;;;21.45;13.63;;;;;;;;;;4934945;29;20056;-68
2022/03/11 02:08:22;;;;;;;21.30;13.57;;;;;;;;;;4933532;29;20075;-68
2022/03/11 02:10:53;;;;;;;22.80;14.10;;;;;;;;;;4934865;29;20052;-68
2022/03/11 02:13:23;;;;;;;23.02;14.32;;;;;;;;;;4934778;29;20499;-69
2022/03/11 02:15:51;;;;;;;22.65;13.95;;;;;;;;;;4933306;29;20065;-68
2022/03/11 02:18:23;;;;;;;23.58;14.55;;;;;;;;;;4934897;29;20056;-69
2022/03/11 02:20:51;;;;;;;20.00;14.32;;;;;;;;;;4934254;29;20051;-68
2022/03/11 02:23:19;;;;;;;23.90;13.40;;;;;;;;;;4933368;29;20050;-68
2022/03/11 02:25:50;;;;;;;22.73;14.18;;;;;;;;;;4917866;29;20058;-68
2022/03/11 02:28:20;;;;;;;25.73;14.25;;;;;;;;;;4935001;29;20060;-68
2022/03/11 02:30:47;;;;;;;28.00;15.48;;;;;;;;;;4934391;29;20463;-69
2022/03/11 02:33:13;;;;;;;24.65;15.35;;;;;;;;;;4934370;29;20051;-67
2022/03/11 02:35:40;;;;;;;26.58;15.50;;;;;;;;;;4934616;29;20055;-68
2022/03/11 02:38:07;;;;;;;22.15;15.18;;;;;;;;;;4934571;29;20091;-67
2022/03/11 02:40:35;;;;;;;25.15;14.73;;;;;;;;;;4934291;29;20107;-68
2022/03/11 02:43:02;;;;;;;24.05;15.45;;;;;;;;;;4934298;29;20047;-66
2022/03/11 02:45:28;;;;;;;27.27;15.13;;;;;;;;;;4934632;29;20056;-66
2022/03/11 02:47:55;;;;;;;24.75;15.98;;;;;;;;;;4933118;29;20059;-67
2022/03/11 02:50:22;;;;;;;22.98;14.60;;;;;;;;;;4934444;29;20056;-66
2022/03/11 02:52:49;;;;;;;24.90;15.80;;;;;;;;;;4934490;29;20048;-65
2022/03/11 02:55:15;;;;;;;22.52;14.15;;;;;;;;;;4934207;29;20464;-69
2022/03/11 02:57:42;;;;;;;22.67;15.55;;;;;;;;;;4934313;29;20056;-67
2022/03/11 03:00:09;;;;;;;24.30;14.85;;;;;;;;;;4934349;29;20110;-66
2022/03/11 03:02:35;;;;;;;24.98;15.02;;;;;;;;;;4934336;29;20048;-66
2022/03/11 03:05:02;;;;;;;25.13;15.20;;;;;;;;;;4934262;29;20091;-67
2022/03/11 03:07:30;;;;;;;24.83;14.35;;;;;;;;;;4934326;29;20104;-66
2022/03/11 03:09:58;;;;;;;24.63;15.73;;;;;;;;;;4933925;29;20052;-66
2022/03/11 03:12:25;;;;;;;26.50;15.52;;;;;;;;;;4934958;29;20618;-66
2022/03/11 03:14:52;;;;;;;25.17;15.13;;;;;;;;;;4937836;29;20103;-67
2022/03/11 03:17:21;;;;;;;27.08;15.93;;;;;;;;;;4937887;29;20048;-66
2022/03/11 03:19:48;;;;;;;24.23;14.90;;;;;;;;;;4937868;29;20055;-66
2022/03/11 03:22:15;;;;;;;21.83;14.02;;;;;;;;;;4937558;29;20048;-67
2022/03/11 03:24:42;;;;;;;26.42;15.27;;;;;;;;;;4937681;29;20055;-66
2022/03/11 03:27:09;;;;;;;26.20;15.70;;;;;;;;;;4937958;29;20055;-67
2022/03/11 03:29:36;;;;;;;26.38;15.10;;;;;;;;;;4937402;29;20047;-68
2022/03/11 03:32:03;;;;;;;24.52;14.60;;;;;;;;;;4931521;29;20056;-67
2022/03/11 03:34:32;;;;;;;24.77;14.68;;;;;;;;;;4930154;29;20091;-66
2022/03/11 03:37:00;;;;;;;22.85;14.13;;;;;;;;;;4928664;29;20051;-68
2022/03/11 03:39:27;;;;;;;23.80;14.40;;;;;;;;;;4928593;29;20044;-67
2022/03/11 03:41:54;;;;;;;21.80;13.95;;;;;;;;;;4927050;29;20107;-65
2022/03/11 03:44:22;;;;;;;23.75;14.07;;;;;;;;;;4926600;29;20098;-66
2022/03/11 03:46:49;;;;;;;22.48;14.77;;;;;;;;;;4927670;29;20058;-66
2022/03/11 03:49:15;;;;;;;22.08;14.55;;;;;;;;;;4928386;29;20060;-66
2022/03/11 03:51:42;;;;;;;22.02;13.90;;;;;;;;;;4927077;29;20055;-66
2022/03/11 03:54:11;;;;;;;21.33;13.40;;;;;;;;;;4927675;29;20110;-67
2022/03/11 03:56:39;;;;;;;24.92;13.80;;;;;;;;;;4925916;29;20060;-67
2022/03/11 03:59:06;;;;;;;21.40;13.23;;;;;;;;;;4928032;29;20047;-67
2022/03/11 04:01:37;;;;;;;22.30;12.77;;;;;;;;;;4929575;29;20551;-66
2022/03/11 04:04:05;;;;;;;24.23;14.00;;;;;;;;;;4935858;29;20055;-66
2022/03/11 04:06:32;;;;;;;21.02;12.68;;;;;;;;;;4937560;29;20478;-67
2022/03/11 04:08:59;;;;;;;23.17;13.30;;;;;;;;;;4936125;29;20056;-66
2022/03/11 04:11:27;;;;;;;23.20;13.05;;;;;;;;;;4919527;29;20104;-66
2022/03/11 04:13:54;;;;;;;21.02;13.25;;;;;;;;;;4917941;29;20048;-68
2022/03/11 04:16:22;;;;;;;21.90;13.73;;;;;;;;;;4917833;29;20056;-66
2022/03/11 04:18:50;;;;;;;24.13;14.02;;;;;;;;;;4917795;29;20056;-69
2022/03/11 04:21:17;;;;;;;20.38;12.68;;;;;;;;;;4932874;29;20056;-67
2022/03/11 04:23:45;;;;;;;21.25;13.35;;;;;;;;;;4936087;29;20392;-67
2022/03/11 04:26:11;;;;;;;19.40;12.93;;;;;;;;;;4936629;29;20055;-68
2022/03/11 04:28:38;;;;;;;20.40;13.38;;;;;;;;;;4936853;29;20064;-67
2022/03/11 04:31:07;;;;;;;20.27;13.00;;;;;;;;;;4936333;29;20052;-66
2022/03/11 04:33:34;;;;;;;19.45;12.18;;;;;;;;;;4936524;29;20048;-69
2022/03/11 04:36:01;;;;;;;21.45;12.55;;;;;;;;;;4936461;29;20130;-67
2022/03/11 04:38:28;;;;;;;20.90;11.50;;;;;;;;;;4936628;29;20056;-68
2022/03/11 04:40:55;;;;;;;21.20;11.93;;;;;;;;;;4936302;29;20098;-68
2022/03/11 04:43:21;;;;;;;18.63;11.30;;;;;;;;;;4936371;29;20130;-67
2022/03/11 04:45:48;;;;;;;19.85;11.63;;;;;;;;;;4936142;29;20056;-68
2022/03/11 04:48:15;;;;;;;19.83;11.75;;;;;;;;;;4936172;29;20107;-67
2022/03/11 04:50:42;;;;;;;18.75;10.50;;;;;;;;;;4936602;29;20051;-67
2022/03/11 04:53:08;;;;;;;19.77;10.65;;;;;;;;;;4936148;29;20051;-68
2022/03/11 04:55:36;;;;;;;17.77;10.68;;;;;;;;;;4936181;29;20083;-67
2022/03/11 04:58:03;;;;;;;20.35;11.55;;;;;;;;;;4936181;29;20052;-67
2022/03/11 05:00:29;;;;;;;16.98;10.82;;;;;;;;;;4935587;29;20106;-67
2022/03/11 05:02:58;;;;;;;17.98;10.80;;;;;;;;;;4935917;29;20150;-66
2022/03/11 05:05:25;;;;;;;19.65;11.65;;;;;;;;;;4936116;29;20054;-69
2022/03/11 05:07:52;;;;;;;19.90;11.52;;;;;;;;;;4936152;29;20055;-66
2022/03/11 05:10:19;;;;;;;19.67;10.32;;;;;;;;;;4935779;29;20052;-68
2022/03/11 05:12:45;;;;;;;15.10;9.25;;;;;;;;;;4935996;29;20048;-67
2022/03/11 05:15:12;;;;;;;18.38;10.20;;;;;;;;;;4939469;29;20059;-67
2022/03/11 05:17:42;;;;;;;19.67;10.48;;;;;;;;;;4939704;29;20051;-66
2022/03/11 05:20:10;;;;;;;14.18;8.77;;;;;;;;;;4920385;29;20058;-67
2022/03/11 05:22:36;;;;;;;12.68;8.00;;;;;;;;;;4935736;29;20047;-66
2022/03/11 05:25:03;;;;;;;15.52;9.10;;;;;;;;;;4935574;29;20052;-68
2022/03/11 05:27:30;;;;;;;14.57;9.55;;;;;;;;;;4933939;29;20110;-66
2022/03/11 05:29:57;;;;;;;17.83;9.40;;;;;;;;;;4935514;29;20052;-66
2022/03/11 05:32:23;;;;;;;13.77;8.80;;;;;;;;;;4935702;29;20056;-68
2022/03/11 05:34:50;;;;;;;13.75;8.45;;;;;;;;;;4935434;29;20565;-67
2022/03/11 05:37:16;;;;;;;16.85;9.40;;;;;;;;;;4935677;29;20116;-66
2022/03/11 05:39:43;;;;;;;14.95;8.63;;;;;;;;;;4935257;29;20091;-66
2022/03/11 05:42:10;;;;;;;15.13;9.48;;;;;;;;;;4935374;29;20495;-67
2022/03/11 05:44:36;;;;;;;13.65;8.38;;;;;;;;;;4935275;29;20055;-67
2022/03/11 05:47:03;;;;;;;12.27;8.23;;;;;;;;;;4935549;29;20415;-66
2022/03/11 05:49:30;;;;;;;13.65;8.45;;;;;;;;;;4935321;29;20047;-67
2022/03/11 05:51:56;;;;;;;12.13;7.78;;;;;;;;;;4933946;29;20052;-67
2022/03/11 05:54:23;;;;;;;12.55;7.15;;;;;;;;;;4935682;29;20052;-67
2022/03/11 05:56:54;;;;;;;12.60;7.85;;;;;;;;;;4935369;29;20047;-69
2022/03/11 05:59:22;;;;;;;12.43;7.88;;;;;;;;;;4935432;29;20070;-66
2022/03/11 06:01:48;;;;;;;12.27;7.85;;;;;;;;;;4935493;29;20055;-67
2022/03/11 06:04:15;;;;;;;12.52;7.68;;;;;;;;;;4935154;29;20051;-66
2022/03/11 06:06:42;;;;;;;12.88;7.75;;;;;;;;;;4935287;29;20520;-67
2022/03/11 06:09:11;;;;;;;12.82;8.13;;;;;;;;;;4935010;29;20060;-66
2022/03/11 06:11:38;;;;;;;12.20;7.28;;;;;;;;;;4934812;29;20048;-66
2022/03/11 06:14:06;;;;;;;11.93;7.30;;;;;;;;;;4935013;29;20052;-67
2022/03/11 06:16:34;;;;;;;12.70;7.20;;;;;;;;;;4935143;29;20063;-67
2022/03/11 06:19:01;;;;;;;12.60;7.15;;;;;;;;;;4935194;29;20051;-68
2022/03/11 06:21:27;;;;;;;13.57;7.85;;;;;;;;;;4931361;29;20052;-67
2022/03/11 06:23:54;;;;;;;11.43;6.28;;;;;;;;;;4924642;29;20102;-66
2022/03/11 06:26:21;;;;;;;10.90;6.85;;;;;;;;;;4934062;29;20471;-67
2022/03/11 06:28:47;;;;;;;11.82;6.78;;;;;;;;;;4934987;29;20051;-66
2022/03/11 06:31:14;;;;;;;10.60;6.20;;;;;;;;;;4934643;29;20052;-66
2022/03/11 06:33:40;;;;;;;14.70;6.60;;;;;;;;;;4916557;29;20059;-70
2022/03/11 06:36:07;;;;;;;11.40;6.25;;;;;;;;;;4913815;29;20103;-66
2022/03/11 06:38:34;;;;;;;11.85;6.28;;;;;;;;;;4913605;29;20472;-66
2022/03/11 06:41:00;;;;;;;11.75;6.40;;;;;;;;;;4923143;29;20059;-67
2022/03/11 06:43:27;;;;;;;12.00;6.93;;;;;;;;;;4931363;29;20051;-68
2022/03/11 06:45:54;;;;;;;8.27;5.68;;;;;;;;;;4932353;29;20048;-66
2022/03/11 06:48:21;;;;;;;11.38;6.40;;;;;;;;;;4937317;29;20056;-70
2022/03/11 06:50:48;;;;;;;10.60;5.90;;;;;;;;;;4938747;29;20059;-68
2022/03/11 06:53:16;;;;;;;10.90;5.85;;;;;;;;;;4938990;29;20484;-69
2022/03/11 06:55:42;;;;;;;11.50;5.95;;;;;;;;;;4938608;29;20550;-66
2022/03/11 06:58:09;;;;;;;9.40;5.40;;;;;;;;;;4939234;29;20116;-66
2022/03/11 07:00:35;;;;;;;10.57;5.80;;;;;;;;;;4937933;29;20649;-68
2022/03/11 07:03:03;;;;;;;10.07;5.80;;;;;;;;;;4938518;29;20051;-67
2022/03/11 07:05:30;;;;;;;9.20;6.07;;;;;;;;;;4938622;29;20056;-69
2022/03/11 07:07:56;;;;;;;7.30;5.30;;;;;;;;;;4938986;29;20059;-68
2022/03/11 07:10:23;;;;;;;8.73;5.40;;;;;;;;;;4938739;29;20060;-66
2022/03/11 07:12:49;;;;;;;9.23;5.40;;;;;;;;;;4938161;29;20059;-66
2022/03/11 07:15:16;;;;;;;8.98;5.65;;;;;;;;;;4938718;29;20060;-67
2022/03/11 07:17:43;;;;;;;19.13;6.35;;;;;;;;;;4938762;29;20079;-66
2022/03/11 07:20:10;;;;;;;9.07;5.20;;;;;;;;;;4938801;29;20055;-69
2022/03/11 07:22:37;;;;;;;9.48;5.95;;;;;;;;;;4938818;29;20055;-66
2022/03/11 07:25:03;;;;;;;9.07;5.32;;;;;;;;;;4938253;29;20047;-66
2022/03/11 07:27:30;;;;;;;8.05;5.32;;;;;;;;;;4938321;29;20130;-66
2022/03/11 07:29:57;;;;;;;9.07;5.70;;;;;;;;;;4921138;29;20063;-69
2022/03/11 07:32:24;;;;;;;10.27;5.65;;;;;;;;;;4933163;29;20048;-70
2022/03/11 07:34:51;;;;;;;9.90;5.97;;;;;;;;;;4933496;29;20047;-69
2022/03/11 07:37:18;;;;;;;12.50;5.70;;;;;;;;;;4936147;29;20110;-68
2022/03/11 07:39:44;;;;;;;8.93;5.43;;;;;;;;;;4936713;29;20099;-69
2022/03/11 07:42:12;;;;;;;8.30;5.40;;;;;;;;;;4937884;29;20451;-67
2022/03/11 07:44:41;;;;;;;10.95;4.85;;;;;;;;;;4938125;29;20515;-68
2022/03/11 07:47:08;;;;;;;10.32;5.50;;;;;;;;;;4932048;29;20071;-68
2022/03/11 07:49:34;;;;;;;9.02;5.15;;;;;;;;;;4937121;29;20066;-69
2022/03/11 07:52:02;;;;;;;11.88;5.53;;;;;;;;;;4937647;29;20551;-68
2022/03/11 07:54:29;;;;;;;9.30;6.03;;;;;;;;;;4937137;29;20110;-69
2022/03/11 07:56:55;;;;;;;8.88;5.32;;;;;;;;;;4938582;29;20044;-68
2022/03/11 07:59:22;;;;;;;9.02;5.30;;;;;;;;;;4935406;29;20047;-67
2022/03/11 08:01:49;;;;;;;8.60;5.47;;;;;;;;;;4936332;29;20301;-67
2022/03/11 08:04:16;;;;;;;8.25;5.88;;;;;;;;;;4936066;29;20509;-67
2022/03/11 08:06:43;;;;;;;9.65;5.90;;;;;;;;;;4932523;29;20055;-68
2022/03/11 08:09:10;;;;;;;9.68;5.63;;;;;;;;;;4936142;29;20047;-68
2022/03/11 08:11:37;;;;;;;9.05;5.70;;;;;;;;;;4935298;29;20126;-66
2022/03/11 08:14:03;;;;;;;8.70;5.40;;;;;;;;;;4936106;29;20044;-67
2022/03/11 08:16:30;;;;;;;10.32;6.22;;;;;;;;;;4935869;29;20102;-66
2022/03/11 08:18:58;;;;;;;13.25;5.70;;;;;;;;;;4936131;29;20134;-67
2022/03/11 08:21:25;;;;;;;8.73;5.53;;;;;;;;;;4935401;29;20118;-66
2022/03/11 08:23:51;;;;;;;9.35;5.53;;;;;;;;;;4930664;29;20047;-67
2022/03/11 08:26:18;;;;;;;11.98;6.25;;;;;;;;;;4935015;29;20055;-68
2022/03/11 08:28:45;;;;;;;10.32;6.57;;;;;;;;;;4988211;23;20043;-66
2022/03/11 08:31:32;;;;;;;10.88;6.10;;;;;;;;;;4974270;28;20486;-65
2022/03/11 08:33:59;;;;;;;11.07;6.32;;;;;;;;;;4974348;28;20055;-65
2022/03/11 08:36:26;;;;;;;8.57;6.07;;;;;;;;;;4972282;28;20097;-67
2022/03/11 08:38:53;;;;;;;10.52;6.40;;;;;;;;;;4967468;28;20051;-67
2022/03/11 08:41:22;;;;;;;10.25;5.43;;;;;;;;;;4961343;28;20063;-66
2022/03/11 08:43:49;;;;;;;8.88;6.38;;;;;;;;;;4962287;28;20049;-67
2022/03/11 08:46:16;;;;;;;9.93;6.95;;;;;;;;;;4961296;28;20486;-67
2022/03/11 08:48:43;;;;;;;9.07;6.28;;;;;;;;;;4962898;28;20047;-67
2022/03/11 08:51:10;;;;;;;9.70;5.60;;;;;;;;;;4960618;28;20055;-65
2022/03/11 08:53:37;;;;;;;11.77;6.28;;;;;;;;;;4964957;28;20047;-66
2022/03/11 08:56:04;;;;;;;9.43;6.13;;;;;;;;;;4960425;28;20414;-67
2022/03/11 08:58:30;;;;;;;11.63;6.65;;;;;;;;;;4961546;28;20098;-66
2022/03/11 09:00:57;;;;;;;10.20;5.70;;;;;;;;;;4964533;28;20046;-67
2022/03/11 09:03:24;;;;;;;12.10;6.60;;;;;;;;;;4962514;28;20065;-67
2022/03/11 09:05:51;;;;;;;11.30;6.40;;;;;;;;;;4960734;28;20134;-66
2022/03/11 09:08:17;;;;;;;9.10;6.18;;;;;;;;;;4962255;28;20050;-67
2022/03/11 09:10:44;;;;;;;9.65;6.20;;;;;;;;;;4962529;28;20046;-67
2022/03/11 09:13:10;;;;;;;11.35;6.43;;;;;;;;;;4977682;28;20101;-66
2022/03/11 09:15:37;;;;;;;9.23;6.03;;;;;;;;;;4962221;28;20055;-66
2022/03/11 09:18:10;;;;;;;12.07;6.22;;;;;;;;;;4960959;28;20047;-68
2022/03/11 09:20:37;;;;;;;9.32;6.20;;;;;;;;;;4961069;28;20608;-67
2022/03/11 09:23:05;;;;;;;12.95;7.30;;;;;;;;;;4963238;28;20047;-66
2022/03/11 09:25:31;;;;;;;12.63;6.50;;;;;;;;;;4967517;28;20106;-66
2022/03/11 09:28:05;;;;;;;11.23;6.22;;;;;;;;;;4960121;28;20047;-66
2022/03/11 09:30:31;;;;;;;9.07;6.30;;;;;;;;;;4961146;28;20062;-66
2022/03/11 09:32:58;;;;;;;10.80;6.70;;;;;;;;;;4961273;28;20047;-67
2022/03/11 09:35:25;;;;;;;11.77;6.65;;;;;;;;;;4973549;28;20054;-67
2022/03/11 09:37:51;;;;;;;11.18;6.20;;;;;;;;;;4972020;28;20203;-67
2022/03/11 09:40:18;;;;;;;10.05;6.40;;;;;;;;;;4973007;28;20086;-67
2022/03/11 09:42:45;;;;;;;10.52;6.50;;;;;;;;;;4972434;28;20046;-67
2022/03/11 09:45:12;;;;;;;12.93;6.57;;;;;;;;;;4974370;28;20079;-67
2022/03/11 09:47:40;;;;;;;12.63;6.50;;;;;;;;;;4956566;28;20054;-67
2022/03/11 09:50:07;;;;;;;10.43;6.00;;;;;;;;;;4973622;28;20209;-66
2022/03/11 09:52:34;;;;;;;9.73;6.32;;;;;;;;;;4955694;28;20089;-67
2022/03/11 09:55:06;;;;;;;10.93;7.07;;;;;;;;;;4955008;28;20054;-66
2022/03/11 09:57:32;;;;;;;9.93;7.00;;;;;;;;;;4954398;28;20110;-67
2022/03/11 09:59:59;;;;;;;11.35;7.45;;;;;;;;;;4954266;28;20526;-68
2022/03/11 10:02:26;;;;;;;13.25;6.70;;;;;;;;;;4970992;28;20458;-67
2022/03/11 10:04:57;;;;;;;11.02;7.18;;;;;;;;;;4973460;28;20105;-67
2022/03/11 10:07:44;;;;;;;11.20;7.22;;;;;;;;;;4972795;28;20133;-67
2022/03/11 10:10:19;;;;;;;12.43;7.32;;;;;;;;;;4972229;28;20203;-67
2022/03/11 10:13:08;;;;;;;9.98;6.50;;;;;;;;;;4973080;28;20134;-67
2022/03/11 10:15:35;;;;;;;10.20;6.43;;;;;;;;;;4973686;28;20417;-67
2022/03/11 10:18:02;;;;;;;10.02;6.13;;;;;;;;;;4973473;28;20479;-67
2022/03/11 10:20:30;;;;;;;10.20;7.25;;;;;;;;;;4972845;28;20485;-68
2022/03/11 10:22:57;;;;;;;12.02;6.75;;;;;;;;;;4972566;28;20128;-67
2022/03/11 10:25:28;;;;;;;9.02;6.75;;;;;;;;;;4973056;28;20061;-68
2022/03/11 10:27:59;;;;;;;11.95;7.80;;;;;;;;;;4971794;28;20055;-67
2022/03/11 10:30:26;;;;;;;10.75;6.53;;;;;;;;;;4973180;28;20047;-67
2022/03/11 10:32:54;;;;;;;11.35;6.93;;;;;;;;;;4969177;28;20047;-67
2022/03/11 10:35:21;;;;;;;13.10;8.00;;;;;;;;;;4953985;28;20051;-67
2022/03/11 10:38:08;;;;;;;12.30;8.35;;;;;;;;;;4952394;29;20102;-67
2022/03/11 10:40:48;;;;;;;11.15;7.13;;;;;;;;;;4954184;28;20048;-67
2022/03/11 10:43:29;;;;;;;10.20;6.93;;;;;;;;;;4972126;28;20051;-68
2022/03/11 10:46:06;;;;;;;10.77;7.43;;;;;;;;;;4971932;28;20050;-67
2022/03/11 10:48:55;;;;;;;11.77;7.82;;;;;;;;;;4972902;28;20054;-66
2022/03/11 10:51:26;;;;;;;16.25;8.45;;;;;;;;;;4972378;28;20055;-67
2022/03/11 10:53:55;;;;;;;11.75;7.13;;;;;;;;;;4972776;28;20575;-67
2022/03/11 10:56:29;;;;;;;10.52;7.35;;;;;;;;;;4972877;28;20098;-66
2022/03/11 10:58:56;;;;;;;11.80;7.30;;;;;;;;;;4972721;28;20129;-67
2022/03/11 11:01:42;;;;;;;16.08;8.32;;;;;;;;;;4965809;28;20054;-67
2022/03/11 11:04:11;;;;;;;11.68;7.55;;;;;;;;;;4966894;28;20050;-67
2022/03/11 11:06:38;;;;;;;12.70;7.57;;;;;;;;;;4972948;28;20059;-66
2022/03/11 11:09:06;;;;;;;9.43;6.90;;;;;;;;;;4972644;28;20105;-68
2022/03/11 11:11:33;;;;;;;10.20;6.68;;;;;;;;;;4979623;28;20481;-68
2022/03/11 11:14:00;;;;;;;10.27;6.97;;;;;;;;;;4987335;28;20083;-67
2022/03/11 11:16:28;;;;;;;12.82;8.30;;;;;;;;;;4987886;28;20110;-67
2022/03/11 11:18:59;;;;;;;10.80;7.35;;;;;;;;;;4987491;28;20493;-68
2022/03/11 11:21:26;;;;;;;13.73;7.18;;;;;;;;;;4986671;28;20094;-68
2022/03/11 11:23:55;;;;;;;10.35;7.60;;;;;;;;;;4987075;28;20051;-68
2022/03/11 11:26:23;;;;;;;11.68;7.70;;;;;;;;;;4987552;28;20055;-68
2022/03/11 11:28:57;;;;;;;11.15;7.68;;;;;;;;;;4987494;28;20125;-67
2022/03/11 11:31:24;;;;;;;11.65;7.47;;;;;;;;;;4969431;28;20054;-67
2022/03/11 11:33:51;;;;;;;13.48;7.30;;;;;;;;;;4970752;28;20054;-67
2022/03/11 11:36:38;;;;;;;14.48;7.82;;;;;;;;;;4990766;28;20105;-66
2022/03/11 11:39:07;;;;;;;11.75;8.07;;;;;;;;;;4990927;28;20054;-67
2022/03/11 11:41:35;;;;;;;16.52;8.98;;;;;;;;;;4984752;28;20506;-66
2022/03/11 11:44:06;;;;;;;13.45;8.25;;;;;;;;;;4976483;28;20469;-66
2022/03/11 11:46:36;;;;;;;16.63;7.22;;;;;;;;;;4976353;28;20046;-67
2022/03/11 11:49:16;;;;;;;10.82;7.70;;;;;;;;;;4975767;28;20078;-67
2022/03/11 11:51:43;;;;;;;10.20;7.30;;;;;;;;;;4956590;28;20047;-67
2022/03/11 11:54:11;;;;;;;11.05;8.20;;;;;;;;;;4956942;28;20458;-67
2022/03/11 11:56:46;;;;;;;10.02;7.50;;;;;;;;;;4956839;28;20146;-66
2022/03/11 11:59:17;;;;;;;9.95;7.30;;;;;;;;;;4956623;28;20098;-66
2022/03/11 12:01:48;;;;;;;11.98;8.30;;;;;;;;;;4956505;28;20109;-67
2022/03/11 12:04:20;;;;;;;12.32;8.32;;;;;;;;;;4956408;28;20506;-66
2022/03/11 12:06:54;;;;;;;;;;;;;;;;;;4965834;28;20078;-67
2022/03/11 12:09:50;;;;;;;13.27;8.07;;;;;;;;;;4974301;28;19926;-68
2022/03/11 12:12:30;;;;;;;12.27;7.35;;;;;;;;;;4960149;28;20047;-67
2022/03/11 12:14:57;;;;;;;11.43;7.95;;;;;;;;;;4954976;29;20051;-68
2022/03/11 12:17:51;;;;;;;13.95;7.97;;;;;;;;;;4963474;28;20474;-67
2022/03/11 12:20:21;;;;;;;12.23;7.60;;;;;;;;;;4990114;28;20123;-67
2022/03/11 12:22:54;;;;;;;11.23;7.85;;;;;;;;;;4987317;28;20062;-67
2022/03/11 12:25:22;;;;;;;11.38;7.95;;;;;;;;;;4986387;28;20046;-67
2022/03/11 12:28:28;;;;;;;12.57;8.13;;;;;;;;;;4983798;28;20469;-68
2022/03/11 12:31:02;;;;;;;13.48;8.75;;;;;;;;;;4953055;28;20055;-68
2022/03/11 12:33:45;;;;;;;15.35;7.88;;;;;;;;;;4950967;28;20047;-68
2022/03/11 12:36:17;;;;;;;12.57;7.38;;;;;;;;;;4953499;28;20458;-68
2022/03/11 12:38:45;;;;;;;11.03;7.87;;;;;;;;;;4972389;28;20078;-68
2022/03/11 12:41:13;;;;;;;12.05;8.18;;;;;;;;;;4971622;28;20493;-68
2022/03/11 12:43:41;;;;;;;10.35;7.30;;;;;;;;;;4974100;28;20059;-68
2022/03/11 12:46:09;;;;;;;11.55;8.00;;;;;;;;;;4973021;28;20055;-67
2022/03/11 12:48:38;;;;;;;9.73;7.00;;;;;;;;;;4960234;28;20490;-68
2022/03/11 12:51:08;;;;;;;11.68;8.57;;;;;;;;;;4957003;28;20122;-68
2022/03/11 12:53:39;;;;;;;11.15;8.75;;;;;;;;;;4958322;28;20055;-68
2022/03/11 12:56:05;;;;;;;11.30;8.52;;;;;;;;;;4958611;28;20055;-68
2022/03/11 12:58:33;;;;;;;11.00;8.40;;;;;;;;;;4975549;28;20473;-72
2022/03/11 13:01:04;;;;;;;10.85;8.23;;;;;;;;;;4970458;28;20462;-68
2022/03/11 13:03:35;;;;;;;15.38;9.32;;;;;;;;;;4955753;28;20062;-71
2022/03/11 13:06:06;;;;;;;12.30;8.05;;;;;;;;;;4967614;28;20077;-69
2022/03/11 13:08:34;;;;;;;12.27;8.00;;;;;;;;;;4967118;28;20047;-69
2022/03/11 13:11:02;;;;;;;11.85;8.25;;;;;;;;;;4966986;28;20062;-69
2022/03/11 13:13:30;;;;;;;9.05;7.15;;;;;;;;;;4960520;28;20055;-69
2022/03/11 13:16:00;;;;;;;9.90;7.53;;;;;;;;;;4958775;28;20514;-69
2022/03/11 13:18:31;;;;;;;13.20;9.23;;;;;;;;;;4961628;28;20047;-70
2022/03/11 13:21:03;;;;;;;11.75;8.82;;;;;;;;;;4964272;28;20065;-69
2022/03/11 13:23:35;;;;;;;9.27;7.68;;;;;;;;;;4965798;28;20051;-70
2022/03/11 13:26:04;;;;;;;9.75;8.07;;;;;;;;;;4967610;28;20376;-68
2022/03/11 13:28:35;;;;;;;16.00;8.07;;;;;;;;;;4960850;28;20534;-68
2022/03/11 13:31:14;;;;;;;11.80;8.82;;;;;;;;;;4960340;28;20050;-67
2022/03/11 13:33:43;;;;;;;8.55;7.65;;;;;;;;;;4962565;28;20054;-68
2022/03/11 13:36:13;;;;;;;14.90;8.50;;;;;;;;;;4960949;28;20043;-69
2022/03/11 13:38:56;;;;;;;9.95;8.25;;;;;;;;;;4966918;28;20102;-69
2022/03/11 13:41:35;;;;;;;9.50;7.72;;;;;;;;;;4959855;28;20198;-69
2022/03/11 13:44:07;;;;;;;11.43;7.82;;;;;;;;;;4964005;28;20123;-69
2022/03/11 13:46:35;;;;;;;10.02;7.85;;;;;;;;;;4958274;28;20047;-68
2022/03/11 13:49:04;;;;;;;11.18;8.73;;;;;;;;;;4963276;28;20047;-68
2022/03/11 13:51:55;;;;;;;9.98;7.85;;;;;;;;;;4960980;28;20059;-69
2022/03/11 13:54:35;;;;;;;10.98;7.95;;;;;;;;;;4957798;28;20200;-67
2022/03/11 13:57:27;;;;;;;12.35;8.45;;;;;;;;;;4959074;28;20790;-68
2022/03/11 13:59:59;;;;;;;11.65;8.93;;;;;;;;;;4964663;28;20097;-68
2022/03/11 14:02:28;;;;;;;13.02;7.88;;;;;;;;;;4973045;28;20089;-68
2022/03/11 14:05:19;;;;;;;11.18;8.35;;;;;;;;;;4959646;28;20055;-68
2022/03/11 14:07:47;;;;;;;11.13;8.00;;;;;;;;;;4961228;28;20054;-69
2022/03/11 14:10:18;;;;;;;11.60;8.55;;;;;;;;;;4959425;28;20521;-68
2022/03/11 14:12:46;;;;;;;10.60;8.15;;;;;;;;;;4960913;28;20050;-68
2022/03/11 14:15:14;;;;;;;14.27;9.10;;;;;;;;;;4961562;28;20047;-68
2022/03/11 14:17:41;;;;;;;11.20;9.32;;;;;;;;;;4960704;28;20059;-68
2022/03/11 14:20:10;;;;;;;12.68;8.52;;;;;;;;;;4961517;28;20478;-68
2022/03/11 14:22:37;;;;;;;10.82;8.07;;;;;;;;;;4956909;28;20518;-68
2022/03/11 14:25:05;;;;;;;11.68;8.73;;;;;;;;;;4960061;28;20105;-68
2022/03/11 14:27:32;;;;;;;10.13;8.23;;;;;;;;;;4959841;28;20502;-68
2022/03/11 14:29:58;;;;;;;12.85;8.15;;;;;;;;;;4961397;28;20073;-68
2022/03/11 14:32:25;;;;;;;13.00;8.50;;;;;;;;;;4957981;28;20109;-67
2022/03/11 14:34:51;;;;;;;14.77;8.82;;;;;;;;;;4957503;28;20059;-68
2022/03/11 14:37:18;;;;;;;14.15;8.48;;;;;;;;;;4960624;28;20054;-68
2022/03/11 14:39:45;;;;;;;12.82;8.60;;;;;;;;;;4959827;28;20047;-67
2022/03/11 14:42:12;;;;;;;13.48;8.35;;;;;;;;;;4959859;28;20561;-69
2022/03/11 14:44:39;;;;;;;13.65;8.48;;;;;;;;;;4955679;28;20055;-70
2022/03/11 14:47:08;;;;;;;12.35;8.32;;;;;;;;;;4960521;28;20053;-70